Terminal Aerodrome Forecast
Issued by NWS Cleveland, OH

Home | Current Version | Previous Version | Graphics & Text | Print | Product List | Glossary On
Versions: 1 2 3 4 5 6 7 8 9 10 11 12 13 14 15 16 17 18 19 20 21 22 23 24 25 26 27
000
FTUS41 KCLE 201400 AAA
TAFCLE
TAF AMD
KCLE 201459Z 2015/2118 24005KT P6SM BKN020
     FM201700 24005KT P6SM BKN035
     FM201900 36006KT P6SM BKN050
     FM210000 14003KT P6SM SCT050
     FM210700 00000KT 4SM BR SKC=

USA.gov is the U.S. government's official web portal to all federal, state and local government web resources and services.